Time;durP1;ratioP1;P1;durP2;ratioP2;P2;SDS_P1;SDS_P2;PMS_P1;PMS_P2;Temp;Humidity;BMP_temperature;BMP_pressure;BME280_temperature;BME280_humidity;BME280_pressure;Samples;Min_cycle;Max_cycle;Signal;HPM_P1;HPM_P2
2022/07/28 00:01:40;;;;;;;5.47;4.80;;;15.20;99.90;;;;;;5033156;28;20258;-64
2022/07/28 00:04:06;;;;;;;5.10;4.70;;;15.20;99.90;;;;;;5031452;28;20207;-64
2022/07/28 00:06:31;;;;;;;5.90;5.50;;;15.20;99.90;;;;;;5031520;28;20183;-65
2022/07/28 00:08:57;;;;;;;6.13;5.57;;;15.20;99.90;;;;;;5031596;28;20178;-66
2022/07/28 00:11:22;;;;;;;6.27;5.63;;;15.20;99.90;;;;;;5031632;28;20176;-66
2022/07/28 00:13:48;;;;;;;6.10;5.70;;;15.20;99.90;;;;;;5031175;28;20172;-66
2022/07/28 00:16:14;;;;;;;5.20;4.73;;;15.20;99.90;;;;;;5031768;28;20175;-63
2022/07/28 00:18:40;;;;;;;5.13;4.70;;;15.20;99.90;;;;;;5050828;28;20177;-63
2022/07/28 00:21:05;;;;;;;4.93;4.63;;;15.30;99.90;;;;;;5051485;28;20178;-63
2022/07/28 00:23:31;;;;;;;5.53;4.33;;;15.30;99.90;;;;;;5050448;28;20285;-64
2022/07/28 00:25:57;;;;;;;5.43;5.10;;;15.30;99.90;;;;;;5051694;28;20183;-64
2022/07/28 00:28:22;;;;;;;5.43;4.97;;;15.30;99.90;;;;;;5051079;28;20195;-64
2022/07/28 00:30:48;;;;;;;6.03;5.53;;;15.30;99.90;;;;;;5050955;28;20220;-65
2022/07/28 00:33:14;;;;;;;5.30;4.90;;;15.30;99.90;;;;;;5051122;28;20539;-63
2022/07/28 00:35:39;;;;;;;6.40;5.80;;;15.30;99.90;;;;;;5050735;28;20252;-64
2022/07/28 00:38:05;;;;;;;5.63;5.17;;;15.30;99.90;;;;;;5051432;28;20187;-62
2022/07/28 00:43:15;;;;;;;4.80;4.50;;;15.20;99.90;;;;;;5051047;28;20221;-64
2022/07/28 00:45:40;;;;;;;5.20;4.80;;;15.20;99.90;;;;;;5050787;28;20620;-65
2022/07/28 00:48:06;;;;;;;6.20;5.57;;;15.30;99.90;;;;;;5050731;28;20648;-66
2022/07/28 00:50:32;;;;;;;5.90;5.40;;;15.20;99.90;;;;;;5051104;28;20264;-66
2022/07/28 00:52:59;;;;;;;5.50;5.03;;;15.20;99.90;;;;;;5050746;28;20221;-66
2022/07/28 00:55:24;;;;;;;5.73;5.23;;;15.20;99.90;;;;;;5050513;28;20203;-66
2022/07/28 00:57:50;;;;;;;6.20;5.80;;;15.20;99.90;;;;;;5050932;28;20350;-66
2022/07/28 01:00:16;;;;;;;5.70;5.23;;;15.20;99.90;;;;;;5050728;28;20183;-65
2022/07/28 01:02:45;;;;;;;5.60;5.20;;;15.10;99.90;;;;;;5050994;28;20194;-66
2022/07/28 01:05:13;;;;;;;5.97;5.57;;;15.10;99.90;;;;;;5050625;28;20195;-66
2022/07/28 01:07:52;;;;;;;5.27;4.93;;;15.10;99.90;;;;;;5050611;28;20362;-66
2022/07/28 01:10:27;;;;;;;5.60;5.30;;;15.10;99.90;;;;;;5050876;28;20301;-66
2022/07/28 01:13:05;;;;;;;5.10;4.80;;;15.00;99.90;;;;;;5054518;28;20175;-66
2022/07/28 01:15:38;;;;;;;5.23;4.93;;;14.90;99.90;;;;;;5054142;28;20213;-66
2022/07/28 01:18:09;;;;;;;5.07;4.67;;;14.90;99.90;;;;;;5054748;28;20511;-66
2022/07/28 01:20:38;;;;;;;5.20;4.90;;;14.90;99.90;;;;;;5054268;28;20193;-65
2022/07/28 01:23:36;;;;;;;5.57;5.17;;;14.90;99.90;;;;;;5054356;28;20213;-65
2022/07/28 01:26:10;;;;;;;5.40;4.90;;;15.00;99.90;;;;;;5007734;28;20248;-66
2022/07/28 01:29:07;;;;;;;8.63;5.40;;;15.00;99.90;;;;;;5054080;28;20194;-63
2022/07/28 01:31:39;;;;;;;5.57;5.27;;;15.00;99.90;;;;;;5054036;28;20190;-63
2022/07/28 01:34:09;;;;;;;5.67;4.70;;;15.00;99.90;;;;;;5053987;28;20293;-63
2022/07/28 01:36:58;;;;;;;4.80;4.50;;;15.00;99.90;;;;;;5054297;28;20221;-64
2022/07/28 01:39:29;;;;;;;5.87;4.80;;;15.10;99.90;;;;;;5054046;28;20186;-63
2022/07/28 01:41:58;;;;;;;8.20;5.20;;;15.00;99.90;;;;;;5053941;28;20582;-64
2022/07/28 01:44:27;;;;;;;5.50;5.10;;;15.00;99.90;;;;;;5053432;28;20233;-64
2022/07/28 01:46:53;;;;;;;5.17;4.83;;;15.00;99.90;;;;;;5054293;28;20504;-63
2022/07/28 01:49:21;;;;;;;5.10;4.70;;;15.10;99.90;;;;;;5038543;28;20195;-63
2022/07/28 01:51:48;;;;;;;7.00;4.90;;;15.10;99.90;;;;;;5034092;28;20197;-64
2022/07/28 01:54:16;;;;;;;5.37;4.87;;;15.10;99.90;;;;;;5033710;28;20183;-63
2022/07/28 01:56:43;;;;;;;5.00;4.70;;;15.10;99.90;;;;;;5034027;28;20171;-64
2022/07/28 01:59:10;;;;;;;4.83;4.53;;;15.10;99.90;;;;;;5034118;28;20179;-63
2022/07/28 02:01:40;;;;;;;5.60;4.53;;;15.10;99.90;;;;;;5050018;28;20202;-64
2022/07/28 02:04:08;;;;;;;5.00;4.60;;;15.00;99.90;;;;;;5053496;28;20198;-64
2022/07/28 02:06:35;;;;;;;5.23;4.60;;;15.10;99.90;;;;;;5053691;28;20190;-64
2022/07/28 02:09:03;;;;;;;5.03;4.60;;;15.10;99.90;;;;;;5053772;28;20181;-64
2022/07/28 02:11:39;;;;;;;5.07;4.67;;;15.00;99.90;;;;;;5053618;28;20171;-64
2022/07/28 02:14:11;;;;;;;6.83;4.90;;;15.00;99.90;;;;;;5053418;28;20205;-65
2022/07/28 02:16:41;;;;;;;4.77;4.47;;;15.00;99.90;;;;;;5053704;28;20261;-62
2022/07/28 02:19:08;;;;;;;10.13;5.03;;;15.00;99.90;;;;;;5053279;28;20178;-65
2022/07/28 02:21:35;;;;;;;5.43;5.13;;;15.00;99.90;;;;;;5052937;28;20595;-65
2022/07/28 02:24:02;;;;;;;6.10;5.70;;;15.00;99.90;;;;;;5053277;28;20675;-66
2022/07/28 02:26:34;;;;;;;5.77;5.30;;;15.00;99.90;;;;;;5053138;28;20171;-66
2022/07/28 02:29:03;;;;;;;5.73;5.33;;;14.90;99.90;;;;;;5053327;28;20250;-66
2022/07/28 02:31:36;;;;;;;5.20;4.80;;;14.90;99.90;;;;;;5052666;28;20233;-66
2022/07/28 02:34:04;;;;;;;5.07;4.67;;;14.80;99.90;;;;;;5052574;28;20226;-66
2022/07/28 02:36:37;;;;;;;5.57;4.63;;;14.70;99.90;;;;;;5052879;28;20179;-66
2022/07/28 02:39:11;;;;;;;5.53;4.73;;;14.70;99.90;;;;;;5052928;28;20208;-67
2022/07/28 02:41:40;;;;;;;4.80;4.60;;;14.60;99.90;;;;;;5052632;28;20174;-66
2022/07/28 02:44:16;;;;;;;5.10;4.80;;;14.60;99.90;;;;;;5052444;28;20246;-65
2022/07/28 02:46:45;;;;;;;5.60;5.10;;;14.50;99.90;;;;;;5052727;28;20593;-66
2022/07/28 02:49:34;;;;;;;5.80;5.33;;;14.40;99.90;;;;;;5052446;28;20206;-66
2022/07/28 02:52:01;;;;;;;5.30;4.90;;;14.30;99.90;;;;;;5047326;28;20254;-66
2022/07/28 02:54:29;;;;;;;5.27;4.87;;;14.20;99.90;;;;;;5052436;28;20264;-67
2022/07/28 02:56:57;;;;;;;4.93;4.53;;;14.20;99.90;;;;;;5052961;28;20198;-66
2022/07/28 02:59:24;;;;;;;6.63;5.10;;;14.10;99.90;;;;;;5052415;28;20182;-66
2022/07/28 03:01:51;;;;;;;5.37;4.97;;;14.10;99.90;;;;;;5052744;28;20182;-65
2022/07/28 03:04:55;;;;;;;5.40;4.90;;;14.10;99.90;;;;;;5051888;28;20206;-66
2022/07/28 03:07:06;;;;;;;5.13;4.73;;;14.00;99.90;;;;;;5052499;28;20187;-67
2022/07/28 03:09:44;;;;;;;5.10;4.70;;;13.90;99.90;;;;;;5052043;28;20237;-66
2022/07/28 03:12:10;;;;;;;5.27;4.97;;;13.80;99.90;;;;;;5052643;28;20179;-66
2022/07/28 03:14:36;;;;;;;5.90;4.60;;;13.80;99.90;;;;;;5051738;28;20194;-66
2022/07/28 03:17:02;;;;;;;5.73;4.80;;;13.70;99.90;;;;;;5052372;28;20201;-66
2022/07/28 03:19:28;;;;;;;5.80;5.40;;;13.60;99.90;;;;;;5052348;28;20209;-66
2022/07/28 03:21:54;;;;;;;5.60;5.13;;;13.50;99.90;;;;;;5051799;28;20221;-66
2022/07/28 03:24:23;;;;;;;5.30;4.90;;;13.40;99.90;;;;;;5051952;28;20199;-66
2022/07/28 03:27:06;;;;;;;6.87;4.83;;;13.30;99.90;;;;;;5052157;28;20717;-66
2022/07/28 03:29:34;;;;;;;5.37;4.87;;;13.20;99.90;;;;;;5052160;28;20206;-66
2022/07/28 03:32:00;;;;;;;5.30;5.00;;;13.20;99.90;;;;;;5051974;28;20178;-64
2022/07/28 03:34:27;;;;;;;5.87;5.47;;;13.10;99.90;;;;;;5051059;28;20195;-64
2022/07/28 03:37:00;;;;;;;5.30;4.90;;;13.10;99.90;;;;;;5051938;28;20414;-66
2022/07/28 03:39:28;;;;;;;5.40;5.00;;;13.10;99.90;;;;;;5051822;28;20605;-66
2022/07/28 03:41:57;;;;;;;6.90;5.47;;;13.00;99.90;;;;;;5051661;28;20183;-64
2022/07/28 03:44:24;;;;;;;5.47;4.90;;;13.00;99.90;;;;;;5051339;28;20214;-63
2022/07/28 03:46:50;;;;;;;6.13;5.53;;;12.90;99.90;;;;;;5050739;28;20175;-63
2022/07/28 03:49:16;;;;;;;5.70;5.30;;;12.90;99.90;;;;;;5051796;28;20174;-64
2022/07/28 03:51:41;;;;;;;5.80;5.23;;;12.90;99.90;;;;;;5051212;28;20260;-66
2022/07/28 03:54:07;;;;;;;5.73;5.10;;;12.90;99.90;;;;;;5051457;28;20582;-66
2022/07/28 03:56:33;;;;;;;6.60;5.70;;;12.90;99.90;;;;;;5051444;28;20262;-64
2022/07/28 03:58:58;;;;;;;5.43;5.10;;;12.90;99.90;;;;;;5051743;28;20171;-63
2022/07/28 04:01:24;;;;;;;5.93;5.53;;;12.90;99.90;;;;;;5051644;28;20175;-64
2022/07/28 04:03:50;;;;;;;5.67;5.20;;;12.90;99.90;;;;;;5041027;28;20178;-64
2022/07/28 04:06:15;;;;;;;6.13;5.80;;;12.90;99.90;;;;;;5031713;28;20167;-63
2022/07/28 04:08:42;;;;;;;8.33;5.00;;;13.00;99.90;;;;;;5031706;28;20183;-63
2022/07/28 04:11:08;;;;;;;6.53;5.07;;;13.10;99.90;;;;;;5031570;28;20277;-64
2022/07/28 04:13:35;;;;;;;5.50;5.10;;;13.10;99.90;;;;;;5031283;28;20176;-66
2022/07/28 04:16:02;;;;;;;5.40;5.00;;;13.20;99.90;;;;;;5031539;28;20214;-66
2022/07/28 04:18:27;;;;;;;5.40;4.83;;;13.20;99.90;;;;;;5033038;28;20163;-64
2022/07/28 04:20:54;;;;;;;5.00;4.60;;;13.30;99.90;;;;;;5051455;28;20191;-64
2022/07/28 04:23:21;;;;;;;5.40;5.10;;;13.30;99.90;;;;;;5051171;28;20640;-66
2022/07/28 04:25:46;;;;;;;6.67;5.40;;;13.30;99.90;;;;;;5050980;28;20194;-65
2022/07/28 04:28:12;;;;;;;5.60;5.23;;;13.30;99.90;;;;;;5051364;28;20209;-64
2022/07/28 04:30:38;;;;;;;6.10;5.60;;;13.30;99.90;;;;;;5051008;28;20201;-63
2022/07/28 04:33:04;;;;;;;7.87;5.47;;;13.40;99.90;;;;;;5051337;28;20170;-64
2022/07/28 04:35:30;;;;;;;5.43;4.83;;;13.40;99.90;;;;;;5050639;28;20612;-64
2022/07/28 04:37:57;;;;;;;5.40;5.00;;;13.40;99.90;;;;;;5051473;28;20194;-64
2022/07/28 04:40:23;;;;;;;6.13;5.20;;;13.40;99.90;;;;;;5052054;28;20171;-64
2022/07/28 04:42:49;;;;;;;5.33;4.97;;;13.50;99.90;;;;;;5053181;28;20186;-65
2022/07/28 04:45:15;;;;;;;5.87;5.37;;;13.50;99.90;;;;;;5052813;28;20207;-65
2022/07/28 04:47:41;;;;;;;5.77;5.13;;;13.60;99.90;;;;;;5057018;28;20232;-65
2022/07/28 04:50:08;;;;;;;5.47;5.13;;;13.70;99.90;;;;;;5056892;28;20202;-64
2022/07/28 04:52:34;;;;;;;5.83;5.33;;;13.90;99.90;;;;;;5056834;28;20190;-65
2022/07/28 04:55:00;;;;;;;5.70;5.20;;;14.10;99.90;;;;;;5040662;28;20607;-65
2022/07/28 04:57:28;;;;;;;7.73;5.40;;;14.30;99.90;;;;;;5056711;28;20167;-65
2022/07/28 04:59:57;;;;;;;6.17;5.77;;;14.40;99.90;;;;;;5054824;28;20247;-65
2022/07/28 05:02:23;;;;;;;6.13;5.57;;;14.50;99.90;;;;;;5055781;28;20252;-65
2022/07/28 05:04:48;;;;;;;5.63;5.23;;;14.60;99.90;;;;;;5054487;28;20191;-64
2022/07/28 05:07:14;;;;;;;6.60;6.20;;;14.70;99.90;;;;;;5054830;28;20642;-64
2022/07/28 05:09:40;;;;;;;7.23;5.63;;;14.70;99.90;;;;;;5054325;28;20211;-64
2022/07/28 05:12:06;;;;;;;6.23;5.67;;;14.70;99.90;;;;;;5055040;28;20175;-64
2022/07/28 05:14:31;;;;;;;6.13;5.70;;;14.80;99.90;;;;;;5053991;28;20198;-65
2022/07/28 05:16:57;;;;;;;5.63;5.10;;;14.80;99.90;;;;;;5054672;28;20171;-64
2022/07/28 05:19:23;;;;;;;9.97;7.50;;;14.80;99.90;;;;;;5053974;28;20247;-64
2022/07/28 05:21:48;;;;;;;6.10;5.50;;;14.70;99.90;;;;;;5054282;28;20175;-65
2022/07/28 05:24:14;;;;;;;6.03;5.47;;;14.70;99.90;;;;;;5054199;28;20195;-64
2022/07/28 05:26:39;;;;;;;5.43;4.90;;;14.90;99.90;;;;;;5054134;28;20185;-64
2022/07/28 05:29:05;;;;;;;5.77;5.33;;;15.10;99.90;;;;;;5054246;28;20294;-64
2022/07/28 05:31:31;;;;;;;4.83;4.37;;;15.40;99.90;;;;;;5054055;28;20180;-64
2022/07/28 05:33:57;;;;;;;5.20;4.80;;;15.70;99.90;;;;;;5053728;28;20195;-64
2022/07/28 05:36:22;;;;;;;5.90;5.07;;;15.90;99.90;;;;;;5053804;28;20330;-65
2022/07/28 05:38:48;;;;;;;5.07;4.67;;;16.00;99.90;;;;;;5054296;28;20182;-64
2022/07/28 05:41:14;;;;;;;5.07;4.67;;;16.10;99.90;;;;;;5053757;28;20190;-66
2022/07/28 05:43:39;;;;;;;5.60;4.93;;;16.20;99.90;;;;;;5042440;28;20303;-67
2022/07/28 05:46:05;;;;;;;8.70;5.03;;;16.40;99.90;;;;;;5052835;28;20190;-66
2022/07/28 05:48:31;;;;;;;5.63;4.73;;;16.50;99.90;;;;;;5053444;28;20264;-67
2022/07/28 05:50:57;;;;;;;6.50;4.90;;;16.60;99.90;;;;;;5058729;28;20217;-66
2022/07/28 05:53:23;;;;;;;5.63;5.13;;;16.90;99.90;;;;;;5053807;28;20179;-66
2022/07/28 05:55:49;;;;;;;4.53;4.33;;;17.10;99.90;;;;;;5053333;28;20675;-63
2022/07/28 05:58:15;;;;;;;7.77;4.90;;;17.20;99.90;;;;;;5053203;28;20477;-65
2022/07/28 06:00:40;;;;;;;5.43;5.03;;;17.30;99.90;;;;;;5053520;28;20189;-64
2022/07/28 06:03:06;;;;;;;6.77;6.23;;;17.40;99.90;;;;;;5053567;28;20249;-64
2022/07/28 06:05:32;;;;;;;5.70;5.30;;;17.30;99.90;;;;;;5053307;28;20722;-65
2022/07/28 06:07:59;;;;;;;6.27;5.43;;;17.40;99.90;;;;;;5053607;28;20697;-64
2022/07/28 06:10:57;;;;;;;5.77;5.47;;;17.50;99.90;;;;;;5053330;28;20206;-63
2022/07/28 06:13:14;;;;;;;6.50;5.63;;;17.50;99.90;;;;;;5053317;28;20664;-64
2022/07/28 06:15:39;;;;;;;6.67;5.97;;;17.60;99.90;;;;;;5053174;28;20594;-63
2022/07/28 06:18:05;;;;;;;7.87;7.23;;;17.80;99.90;;;;;;5053286;28;20174;-64
2022/07/28 06:20:30;;;;;;;6.47;5.67;;;17.80;99.90;;;;;;5053361;28;20252;-64
2022/07/28 06:22:56;;;;;;;5.47;5.07;;;17.70;99.90;;;;;;5053212;28;20179;-63
2022/07/28 06:25:24;;;;;;;5.20;4.87;;;17.70;99.90;;;;;;5052900;28;20191;-64
2022/07/28 06:27:58;;;;;;;6.37;5.30;;;17.70;99.90;;;;;;5053023;28;20243;-65
2022/07/28 06:30:24;;;;;;;6.20;5.57;;;17.80;99.90;;;;;;5053123;28;20611;-64
2022/07/28 06:32:50;;;;;;;5.20;4.83;;;18.00;99.90;;;;;;5052814;28;20221;-65
2022/07/28 06:35:17;;;;;;;9.20;4.77;;;18.10;99.90;;;;;;5052526;28;20199;-64
2022/07/28 06:37:47;;;;;;;7.03;6.43;;;18.20;99.90;;;;;;5052838;28;20254;-66
2022/07/28 06:40:14;;;;;;;4.93;4.53;;;18.70;99.90;;;;;;5053137;28;20273;-64
2022/07/28 06:42:41;;;;;;;5.73;4.30;;;19.30;99.90;;;;;;5053012;28;20365;-63
2022/07/28 06:45:08;;;;;;;5.10;4.60;;;19.90;99.90;;;;;;5052361;28;20587;-65
2022/07/28 06:47:34;;;;;;;5.37;4.80;;;20.10;99.90;;;;;;5052802;28;20202;-64
2022/07/28 06:49:59;;;;;;;4.97;4.57;;;20.40;99.90;;;;;;5052361;28;20757;-65
2022/07/28 06:52:25;;;;;;;4.90;4.50;;;20.80;99.90;;;;;;5052910;28;20636;-62
2022/07/28 06:54:52;;;;;;;7.50;4.25;;;21.00;99.90;;;;;;5052250;28;20277;-65
2022/07/28 06:57:19;;;;;;;5.97;4.47;;;20.90;99.90;;;;;;5052412;28;20175;-64
2022/07/28 06:59:45;;;;;;;4.83;4.20;;;21.10;99.90;;;;;;5052493;28;20261;-64
2022/07/28 07:02:11;;;;;;;4.18;3.88;;;21.40;99.90;;;;;;5052119;28;20739;-65
2022/07/28 07:04:37;;;;;;;4.20;3.50;;;21.60;99.90;;;;;;5052198;28;20195;-65
2022/07/28 07:07:03;;;;;;;5.20;3.65;;;21.90;99.90;;;;;;5052230;28;20186;-65
2022/07/28 07:09:29;;;;;;;5.47;3.67;;;22.10;99.90;;;;;;5051509;28;20652;-63
2022/07/28 07:11:55;;;;;;;4.45;4.05;;;22.40;99.90;;;;;;5052318;28;20182;-63
2022/07/28 07:14:20;;;;;;;4.70;4.30;;;22.40;99.90;;;;;;5051472;28;20191;-64
2022/07/28 07:16:46;;;;;;;3.97;3.67;;;22.40;99.90;;;;;;5052306;28;20282;-64
2022/07/28 07:19:11;;;;;;;5.38;4.00;;;22.20;99.90;;;;;;5052090;28;20174;-64
2022/07/28 07:21:37;;;;;;;5.07;4.10;;;22.00;99.90;;;;;;5052179;28;20181;-65
2022/07/28 07:24:03;;;;;;;4.07;3.78;;;22.30;99.90;;;;;;5051426;28;20273;-64
2022/07/28 07:26:29;;;;;;;3.95;3.60;;;22.80;99.90;;;;;;5052034;28;20174;-64
2022/07/28 07:28:54;;;;;;;5.50;3.65;;;23.30;99.90;;;;;;5051043;28;20167;-67
2022/07/28 07:31:20;;;;;;;4.45;4.00;;;23.80;99.90;;;;;;5051198;28;20234;-65
2022/07/28 07:33:45;;;;;;;3.47;3.15;;;24.20;99.90;;;;;;5051368;28;20256;-66
2022/07/28 07:36:11;;;;;;;4.00;3.03;;;24.50;99.90;;;;;;5052106;28;20171;-65
2022/07/28 07:38:38;;;;;;;3.25;3.00;;;25.10;99.90;;;;;;5051773;28;20247;-63
2022/07/28 07:41:04;;;;;;;3.85;3.35;;;25.40;99.90;;;;;;5051925;28;20304;-63
2022/07/28 07:43:29;;;;;;;5.97;3.45;;;25.70;99.90;;;;;;5051271;28;20258;-64
2022/07/28 07:45:55;;;;;;;3.80;3.50;;;26.10;99.90;;;;;;5051460;28;20683;-63
2022/07/28 07:48:20;;;;;;;3.88;3.60;;;26.10;99.90;;;;;;5051318;28;20186;-64
2022/07/28 07:50:46;;;;;;;3.88;3.40;;;26.10;99.90;;;;;;5051664;28;20203;-64
2022/07/28 07:53:11;;;;;;;5.53;3.42;;;26.30;99.90;;;;;;5051514;28;20179;-63
2022/07/28 07:55:37;;;;;;;5.90;3.40;;;26.70;99.90;;;;;;5051340;28;20751;-63
2022/07/28 07:58:03;;;;;;;4.40;3.38;;;26.80;99.90;;;;;;5051180;28;20179;-63
2022/07/28 08:00:29;;;;;;;3.63;3.33;;;27.10;99.90;;;;;;5051493;28;20177;-64
2022/07/28 08:02:59;;;;;;;5.00;3.10;;;27.30;99.90;;;;;;5041412;28;20237;-63
2022/07/28 08:05:24;;;;;;;3.42;3.13;;;27.40;99.90;;;;;;5051172;28;20191;-64
2022/07/28 08:07:50;;;;;;;3.50;3.03;;;27.60;99.90;;;;;;5051130;28;20193;-64
2022/07/28 08:10:16;;;;;;;5.10;3.28;;;28.00;99.90;;;;;;5051368;28;20289;-64
2022/07/28 08:12:41;;;;;;;2.95;2.75;;;28.50;99.90;;;;;;5051058;28;20624;-63
2022/07/28 08:15:07;;;;;;;3.58;3.00;;;28.40;99.90;;;;;;5051174;28;20182;-63
2022/07/28 08:17:33;;;;;;;2.97;2.78;;;28.20;99.90;;;;;;5051078;28;20556;-63
2022/07/28 08:19:59;;;;;;;3.38;3.08;;;27.90;99.90;;;;;;5051178;28;20179;-64
2022/07/28 08:22:25;;;;;;;3.92;2.90;;;27.70;99.90;;;;;;5051138;28;20616;-62
2022/07/28 08:24:50;;;;;;;3.50;2.80;;;28.00;99.90;;;;;;5051019;28;20190;-62
2022/07/28 08:27:16;;;;;;;7.40;3.28;;;28.20;99.90;;;;;;5051043;28;20228;-64
2022/07/28 08:29:42;;;;;;;4.13;3.13;;;28.00;99.90;;;;;;5051053;28;20202;-63
2022/07/28 08:32:08;;;;;;;4.60;3.70;;;28.00;99.90;;;;;;5051235;28;20171;-64
2022/07/28 08:34:34;;;;;;;3.03;2.83;;;28.30;99.90;;;;;;5050761;28;20324;-63
2022/07/28 08:37:03;;;;;;;2.83;2.65;;;28.50;99.90;;;;;;5051095;28;20534;-63
2022/07/28 08:39:30;;;;;;;4.45;2.80;;;28.90;99.90;;;;;;5051093;28;20250;-64
2022/07/28 08:42:24;;;;;;;4.35;2.42;;;29.30;99.90;;;;;;5050749;28;20185;-63
2022/07/28 08:45:13;;;;;;;4.90;3.47;;;29.30;99.90;;;;;;5043043;28;20219;-64
2022/07/28 08:47:40;;;;;;;3.20;2.90;;;29.20;99.90;;;;;;5050888;28;20182;-63
2022/07/28 08:50:07;;;;;;;6.63;3.60;;;28.80;99.50;;;;;;5050950;28;20209;-64
2022/07/28 08:52:33;;;;;;;4.30;3.20;;;28.40;99.90;;;;;;5050638;28;20187;-63
2022/07/28 08:55:03;;;;;;;3.58;2.97;;;28.60;99.90;;;;;;5050835;28;20660;-64
2022/07/28 08:57:42;;;;;;;3.35;2.95;;;28.90;99.90;;;;;;5050830;28;20182;-64
2022/07/28 09:00:09;;;;;;;8.20;3.17;;;29.00;99.90;;;;;;5050956;28;20211;-64
2022/07/28 09:02:41;;;;;;;7.03;3.28;;;28.90;99.90;;;;;;5050596;28;20193;-63
2022/07/28 09:05:08;;;;;;;4.28;2.83;;;29.20;99.90;;;;;;5050744;28;20660;-62
2022/07/28 09:07:37;;;;;;;6.93;3.03;;;29.70;99.90;;;;;;5050545;28;20209;-64
2022/07/28 09:10:07;;;;;;;2.92;2.72;;;30.00;98.10;;;;;;5050387;28;20692;-64
2022/07/28 09:12:34;;;;;;;5.97;3.60;;;29.50;98.20;;;;;;5048730;28;20183;-64
2022/07/28 09:15:04;;;;;;;4.70;3.33;;;29.50;97.90;;;;;;5049981;28;20206;-63
2022/07/28 09:17:31;;;;;;;3.08;2.80;;;29.70;98.20;;;;;;5050489;28;20171;-64
2022/07/28 09:19:57;;;;;;;3.45;2.75;;;30.20;97.10;;;;;;5050481;28;20214;-63
2022/07/28 09:22:22;;;;;;;4.85;2.65;;;30.10;97.90;;;;;;5050487;28;20729;-64
2022/07/28 09:24:48;;;;;;;5.25;3.30;;;30.30;95.70;;;;;;5050212;28;20221;-64
2022/07/28 09:27:14;;;;;;;8.60;3.25;;;30.50;95.90;;;;;;5049696;28;20178;-64
2022/07/28 09:29:44;;;;;;;2.53;2.33;;;30.60;96.30;;;;;;5050074;28;20202;-63
2022/07/28 09:32:13;;;;;;;5.18;2.70;;;31.00;97.20;;;;;;5051532;28;20229;-64
2022/07/28 09:34:44;;;;;;;2.72;2.53;;;31.40;94.70;;;;;;5054226;28;20202;-64
2022/07/28 09:37:22;;;;;;;3.60;2.50;;;31.40;92.30;;;;;;5054491;28;20633;-63
2022/07/28 09:39:48;;;;;;;3.05;2.58;;;31.00;92.60;;;;;;5053967;28;20176;-63
2022/07/28 09:42:17;;;;;;;2.88;2.42;;;30.80;90.20;;;;;;5053101;28;20190;-64
2022/07/28 09:44:43;;;;;;;2.90;2.70;;;30.40;90.70;;;;;;5053844;28;20202;-64
2022/07/28 09:47:26;;;;;;;3.50;3.20;;;29.80;89.30;;;;;;5054524;28;20644;-64
2022/07/28 09:49:53;;;;;;;2.83;2.45;;;29.40;92.00;;;;;;5054001;28;20226;-64
2022/07/28 09:52:30;;;;;;;3.35;2.33;;;29.60;91.70;;;;;;5054032;28;20175;-64
2022/07/28 09:55:05;;;;;;;6.30;2.80;;;29.80;91.70;;;;;;5053649;28;20214;-63
2022/07/28 09:57:33;;;;;;;4.53;2.72;;;29.90;91.70;;;;;;5053986;28;20179;-63
2022/07/28 09:59:59;;;;;;;3.75;3.20;;;29.60;89.80;;;;;;5053884;28;20175;-62
2022/07/28 10:02:27;;;;;;;2.80;2.60;;;29.50;93.90;;;;;;5053919;28;20175;-63
2022/07/28 10:04:53;;;;;;;3.33;3.03;;;29.80;92.30;;;;;;5053645;28;20683;-64
2022/07/28 10:07:19;;;;;;;2.95;2.50;;;30.10;89.60;;;;;;5053844;28;20175;-64
2022/07/28 10:10:03;;;;;;;3.40;2.63;;;30.60;90.00;;;;;;5053738;28;20195;-64
2022/07/28 10:12:31;;;;;;;3.22;2.53;;;30.90;84.60;;;;;;5053799;28;20209;-63
2022/07/28 10:14:59;;;;;;;3.20;2.95;;;31.30;88.30;;;;;;5053431;28;20218;-64
2022/07/28 10:17:28;;;;;;;2.97;2.65;;;31.60;86.70;;;;;;5053624;28;20167;-64
2022/07/28 10:20:11;;;;;;;3.30;2.97;;;31.40;88.00;;;;;;5053583;28;20574;-64
2022/07/28 10:22:39;;;;;;;2.60;2.40;;;32.00;84.70;;;;;;5053626;28;20546;-64
2022/07/28 10:25:09;;;;;;;2.50;2.30;;;32.20;86.00;;;;;;5052893;28;20195;-64
2022/07/28 10:27:36;;;;;;;2.50;2.30;;;32.60;83.70;;;;;;5053270;28;20218;-64
2022/07/28 10:30:04;;;;;;;2.80;2.50;;;32.90;77.50;;;;;;5053190;28;20581;-64
2022/07/28 10:32:41;;;;;;;2.58;2.38;;;32.40;79.10;;;;;;5053252;28;20250;-64
2022/07/28 10:35:10;;;;;;;3.30;2.80;;;32.10;81.30;;;;;;5053303;28;20556;-64
2022/07/28 10:37:48;;;;;;;2.50;2.40;;;31.70;83.20;;;;;;5053242;28;20167;-64
2022/07/28 10:40:17;;;;;;;5.80;2.60;;;31.60;79.40;;;;;;5052359;28;20228;-64
2022/07/28 10:42:43;;;;;;;3.35;2.60;;;31.80;82.50;;;;;;5053173;28;20549;-64
2022/07/28 10:45:12;;;;;;;3.55;2.85;;;32.20;78.30;;;;;;5053042;28;20215;-63
2022/07/28 10:47:37;;;;;;;3.22;2.88;;;32.20;78.30;;;;;;5052958;28;20178;-64
2022/07/28 10:50:04;;;;;;;3.53;3.22;;;31.90;79.90;;;;;;5052677;28;20194;-64
2022/07/28 10:52:31;;;;;;;2.92;2.72;;;32.10;75.90;;;;;;5052887;28;20167;-64
2022/07/28 10:55:02;;;;;;;4.20;2.85;;;32.10;80.40;;;;;;5052618;28;20478;-63
2022/07/28 10:57:30;;;;;;;2.70;2.50;;;32.10;82.10;;;;;;5053077;28;20225;-63
2022/07/28 11:00:15;;;;;;;3.10;2.90;;;32.20;75.60;;;;;;5053053;28;20205;-64
2022/07/28 11:02:56;;;;;;;2.88;2.67;;;32.20;76.00;;;;;;5053205;28;20185;-63
2022/07/28 11:05:27;;;;;;;2.88;2.60;;;31.80;78.10;;;;;;5052504;28;20325;-66
2022/07/28 11:07:54;;;;;;;4.30;2.70;;;32.10;79.50;;;;;;5052771;28;20240;-64
2022/07/28 11:10:21;;;;;;;2.80;2.60;;;32.10;75.50;;;;;;5052394;28;20212;-64
2022/07/28 11:12:47;;;;;;;3.78;2.95;;;31.70;74.10;;;;;;5052626;28;20159;-64
2022/07/28 11:15:33;;;;;;;2.92;2.65;;;31.20;75.00;;;;;;5051940;28;20237;-63
2022/07/28 11:18:03;;;;;;;2.33;2.20;;;31.20;76.80;;;;;;5052402;28;20163;-63
2022/07/28 11:20:51;;;;;;;2.72;2.53;;;31.30;77.10;;;;;;5052613;28;20260;-64
2022/07/28 11:23:35;;;;;;;3.13;2.60;;;31.30;76.30;;;;;;5052360;28;20171;-64
2022/07/28 11:26:19;;;;;;;3.00;2.80;;;30.90;75.60;;;;;;5052343;28;20205;-64
2022/07/28 11:29:04;;;;;;;6.22;2.90;;;30.60;75.50;;;;;;5052405;28;20198;-64
2022/07/28 11:31:45;;;;;;;3.00;2.80;;;30.60;77.90;;;;;;5051945;28;20199;-64
2022/07/28 11:34:21;;;;;;;3.05;2.78;;;30.70;82.80;;;;;;5051542;28;20240;-64
2022/07/28 11:36:56;;;;;;;4.00;2.47;;;31.00;73.90;;;;;;5052186;28;20171;-64
2022/07/28 11:39:24;;;;;;;3.85;2.50;;;31.50;78.70;;;;;;5052014;28;20174;-64
2022/07/28 11:41:49;;;;;;;2.78;2.58;;;31.70;77.90;;;;;;5051795;28;20170;-64
2022/07/28 11:44:24;;;;;;;3.08;2.88;;;31.20;76.00;;;;;;5051569;28;20210;-64
2022/07/28 11:46:50;;;;;;;2.30;2.20;;;31.00;79.50;;;;;;5052189;28;20249;-64
2022/07/28 11:49:19;;;;;;;2.92;2.70;;;31.40;78.10;;;;;;5052131;28;20178;-64
2022/07/28 11:52:14;;;;;;;3.10;2.80;;;31.90;77.50;;;;;;5051937;28;20183;-64
2022/07/28 11:54:41;;;;;;;3.70;2.60;;;31.80;81.20;;;;;;5050736;28;20190;-64
2022/07/28 11:57:10;;;;;;;2.97;2.55;;;32.00;77.50;;;;;;5051770;28;20186;-64
2022/07/28 11:59:53;;;;;;;4.25;2.63;;;32.00;77.10;;;;;;5051726;28;20171;-63
2022/07/28 12:02:24;;;;;;;3.05;2.75;;;31.90;72.90;;;;;;5051624;28;20182;-65
2022/07/28 12:05:05;;;;;;;2.58;2.38;;;31.50;79.40;;;;;;5051407;28;20274;-64
2022/07/28 12:07:39;;;;;;;3.65;2.42;;;31.60;77.10;;;;;;5051459;28;20177;-64
2022/07/28 12:10:31;;;;;;;3.03;2.63;;;32.00;73.40;;;;;;5051497;28;20205;-64
2022/07/28 12:12:59;;;;;;;4.00;2.58;;;31.80;76.00;;;;;;5051635;28;20636;-64
2022/07/28 12:15:25;;;;;;;2.65;2.42;;;32.10;80.90;;;;;;5051164;28;20191;-65
2022/07/28 12:17:51;;;;;;;2.50;2.30;;;32.50;74.80;;;;;;5051767;28;20177;-65
2022/07/28 12:20:17;;;;;;;6.90;2.72;;;33.10;79.30;;;;;;5051525;28;20258;-65
2022/07/28 12:22:56;;;;;;;2.72;2.30;;;33.70;73.80;;;;;;5051686;28;20178;-65
2022/07/28 12:25:22;;;;;;;4.22;2.50;;;33.30;73.50;;;;;;5051151;28;20198;-65
2022/07/28 12:27:47;;;;;;;4.38;2.30;;;33.20;69.10;;;;;;5051593;28;20182;-66
2022/07/28 12:30:24;;;;;;;2.50;2.40;;;33.00;73.30;;;;;;5051713;28;20204;-64
2022/07/28 12:32:50;;;;;;;3.80;2.65;;;32.60;70.10;;;;;;5051793;28;20253;-65
2022/07/28 12:35:16;;;;;;;4.80;2.58;;;32.40;73.40;;;;;;5051303;28;20282;-65
2022/07/28 12:37:46;;;;;;;2.60;2.40;;;32.10;69.10;;;;;;5051435;28;20175;-64
2022/07/28 12:40:16;;;;;;;3.10;2.30;;;32.00;70.70;;;;;;5050879;28;20182;-65
2022/07/28 12:42:42;;;;;;;2.72;2.53;;;32.10;72.10;;;;;;5051675;28;20198;-64
2022/07/28 12:45:09;;;;;;;3.50;3.00;;;32.30;72.30;;;;;;5051156;28;20229;-64
2022/07/28 12:47:34;;;;;;;2.83;2.22;;;31.90;68.70;;;;;;5051253;28;20612;-64
2022/07/28 12:50:09;;;;;;;5.25;2.60;;;31.40;69.60;;;;;;5051423;28;20285;-64
2022/07/28 12:52:35;;;;;;;3.03;2.83;;;31.10;71.40;;;;;;5051238;28;20265;-63
2022/07/28 12:55:00;;;;;;;3.53;2.83;;;30.90;70.40;;;;;;5050981;28;20266;-63
2022/07/28 12:57:46;;;;;;;2.72;2.63;;;30.50;69.30;;;;;;5051426;28;20242;-64
2022/07/28 13:00:13;;;;;;;2.80;2.60;;;30.40;72.20;;;;;;5051181;28;20175;-63